CheckWX is a tool to help pilots better visualize weather data.  It is not intended as a substitute for an official pre-flight weather briefing.

02:12:54 UTC

KMSP TAF
Minneapolis-St Paul International / Wold-Chamberlain Airport
Minneapolis, Minnesota, USA
KMSP 242338Z 2500/2606 17004KT P6SM BKN070 FM250700 VRB04KT 6SM BR OVC090 FM251100 00000KT 6SM -SHRA BR BKN040 FM251500 VRB03KT 6SM -SHRA BR BKN025 FM252000 21005KT P6SM BKN035

May-25@
00:00 UTC

May-25 @ 00:00 UTC

May-25@
07:00 UTC

May-25 @ 07:00 UTC

TAF KMSP 242338Z 2500/2606 17004KT P6SM BKN070

Expired

Wind
  • 170° at 4 KTS
Cloud Levels
  • Broken at 7,000' AGL

May-25@
07:00 UTC

May-25 @ 07:00 UTC

May-25@
11:00 UTC

May-25 @ 11:00 UTC

FM250700 VRB04KT 6SM BR OVC090

Expired

Wind
  • Variable at 4 KTS
Conditions
Mist
Cloud Levels
  • Overcast at 9,000' AGL

May-25@
11:00 UTC

May-25 @ 11:00 UTC

May-25@
15:00 UTC

May-25 @ 15:00 UTC

FM251100 00000KT 6SM -SHRA BR BKN040

Expired

Conditions
Light Showers, Rain, Mist
Cloud Levels
  • Broken at 4,000' AGL

May-25@
15:00 UTC

May-25 @ 15:00 UTC

May-25@
20:00 UTC

May-25 @ 20:00 UTC

FM251500 VRB03KT 6SM -SHRA BR BKN025

Expired

Wind
  • Variable at 3 KTS
Conditions
Light Showers, Rain, Mist
Cloud Levels
  • Broken at 2,500' AGL

May-25@
20:00 UTC

May-25 @ 20:00 UTC

May-26@
06:00 UTC

May-26 @ 06:00 UTC

FM252000 21005KT P6SM BKN035

From

From Standard forecast or significant change

Wind
  • 210° at 5 KTS
Cloud Levels
  • Broken at 3,500' AGL